createdAt,value
2022-11-28T00:00:01.271Z,100801.25
2022-11-28T00:02:48.548Z,100794.38
2022-11-28T00:05:36.550Z,100786.44
2022-11-28T00:08:23.846Z,100784.03
2022-11-28T00:11:13.628Z,100775.41
2022-11-28T00:14:04.575Z,100775.81
2022-11-28T00:16:52.087Z,100777.00
2022-11-28T00:19:39.290Z,100767.28
2022-11-28T00:22:27.935Z,100770.13
2022-11-28T00:25:14.712Z,100765.75
2022-11-28T00:28:02.074Z,100758.91
2022-11-28T00:30:50.334Z,100754.56
2022-11-28T00:33:37.548Z,100754.63
2022-11-28T00:36:25.603Z,100752.84
2022-11-28T00:39:13.147Z,100751.12
2022-11-28T00:42:00.640Z,100749.28
2022-11-28T00:44:48.275Z,100745.78
2022-11-28T00:47:36.614Z,100751.84
2022-11-28T00:50:23.594Z,100747.84
2022-11-28T00:53:10.403Z,100745.94
2022-11-28T00:55:57.849Z,100734.84
2022-11-28T00:58:45.033Z,100734.09
2022-11-28T01:01:34.550Z,100736.81
2022-11-28T01:04:22.876Z,100732.53
2022-11-28T01:07:09.946Z,100735.09
2022-11-28T01:09:57.576Z,100732.69
2022-11-28T01:12:45.609Z,100734.56
2022-11-28T01:15:32.650Z,100735.34
2022-11-28T01:18:19.947Z,100731.87
2022-11-28T01:21:08.705Z,100728.19
2022-11-28T01:23:56.125Z,100729.81
2022-11-28T01:26:43.844Z,100729.63
2022-11-28T01:29:30.965Z,100726.84
2022-11-28T01:32:17.817Z,100724.00
2022-11-28T01:35:05.272Z,100714.28
2022-11-28T01:37:53.175Z,100707.19
2022-11-28T01:40:45.917Z,100714.19
2022-11-28T01:43:33.132Z,100714.03
2022-11-28T01:46:20.321Z,100708.75
2022-11-28T01:49:11.807Z,100698.97
2022-11-28T01:52:04.120Z,100695.47
2022-11-28T01:55:01.570Z,100683.03
2022-11-28T01:57:49.080Z,100669.91
2022-11-28T02:00:35.716Z,100675.19
2022-11-28T02:03:27.865Z,100676.12
2022-11-28T02:06:18.289Z,100672.72
2022-11-28T02:09:07.411Z,100671.78
2022-11-28T02:12:11.529Z,100661.38
2022-11-28T02:15:23.911Z,100654.50
2022-11-28T02:18:27.114Z,100647.34
2022-11-28T02:21:27.780Z,100653.78
2022-11-28T02:24:48.729Z,100644.06
2022-11-28T02:28:18.700Z,100645.88
2022-11-28T02:31:20.474Z,100635.38
2022-11-28T02:34:13.519Z,100629.78
2022-11-28T02:37:07.784Z,100616.53
2022-11-28T02:40:04.425Z,100617.88
2022-11-28T02:43:02.613Z,100601.91
2022-11-28T02:45:57.335Z,100601.12
2022-11-28T02:48:50.374Z,100601.22
2022-11-28T02:51:42.623Z,100597.31
2022-11-28T02:54:31.763Z,100600.75
2022-11-28T02:57:18.779Z,100602.53
2022-11-28T03:00:28.774Z,100596.28
2022-11-28T03:03:53.197Z,100597.31
2022-11-28T03:06:54.537Z,100580.63
2022-11-28T03:09:57.402Z,100573.66
2022-11-28T03:12:57.332Z,100576.44
2022-11-28T03:15:53.966Z,100572.72
2022-11-28T03:18:46.095Z,100573.50
2022-11-28T03:21:40.058Z,100566.37
2022-11-28T03:24:36.654Z,100568.78
2022-11-28T03:27:32.220Z,100557.62
2022-11-28T03:30:25.091Z,100556.19
2022-11-28T03:33:14.147Z,100550.03
2022-11-28T03:36:06.868Z,100551.53
2022-11-28T03:38:57.893Z,100547.69
2022-11-28T03:41:50.750Z,100552.69
2022-11-28T03:44:45.020Z,100543.91
2022-11-28T03:47:37.501Z,100536.19
2022-11-28T03:50:30.134Z,100533.03
2022-11-28T03:53:22.260Z,100537.41
2022-11-28T03:56:14.642Z,100535.66
2022-11-28T03:59:09.074Z,100529.28
2022-11-28T04:02:06.746Z,100524.34
2022-11-28T04:05:00.926Z,100528.28
2022-11-28T04:07:53.463Z,100542.97
2022-11-28T04:10:45.471Z,100552.44
2022-11-28T04:13:37.604Z,100554.03
2022-11-28T04:16:33.859Z,100548.09
2022-11-28T04:19:29.330Z,100547.94
2022-11-28T04:22:21.971Z,100544.38
2022-11-28T04:25:13.888Z,100540.88
2022-11-28T04:28:05.858Z,100540.69
2022-11-28T04:30:54.735Z,100540.75
2022-11-28T04:33:48.672Z,100535.97
2022-11-28T04:36:38.904Z,100534.03
2022-11-28T04:39:29.115Z,100531.06
2022-11-28T04:42:20.308Z,100529.16
2022-11-28T04:45:13.022Z,100517.50
2022-11-28T04:48:00.765Z,100517.50
2022-11-28T04:50:54.743Z,100512.09
2022-11-28T04:53:48.977Z,100499.72
2022-11-28T04:56:45.549Z,100486.66
2022-11-28T04:59:33.634Z,100497.28
2022-11-28T05:02:22.643Z,100494.75
2022-11-28T05:05:12.981Z,100505.16
2022-11-28T05:08:01.350Z,100518.44
2022-11-28T05:10:48.600Z,100520.12
2022-11-28T05:13:35.543Z,100522.78
2022-11-28T05:16:23.497Z,100517.16
2022-11-28T05:19:11.222Z,100509.16
2022-11-28T05:21:58.026Z,100507.31
2022-11-28T05:24:46.944Z,100521.38
2022-11-28T05:27:33.685Z,100511.69
2022-11-28T05:30:21.112Z,100515.88
2022-11-28T05:33:07.760Z,100523.78
2022-11-28T05:35:55.104Z,100523.03
2022-11-28T05:38:42.536Z,100511.72
2022-11-28T05:41:33.273Z,100501.31
2022-11-28T05:44:25.455Z,100508.41
2022-11-28T05:47:13.988Z,100499.53
2022-11-28T05:50:01.089Z,100494.34
2022-11-28T05:52:48.107Z,100496.91
2022-11-28T05:55:35.516Z,100486.50
2022-11-28T05:58:24.068Z,100484.87
2022-11-28T06:01:13.325Z,100477.00
2022-11-28T06:04:02.096Z,100476.53
2022-11-28T06:06:51.367Z,100469.31
2022-11-28T06:09:38.214Z,100474.59
2022-11-28T06:12:24.948Z,100471.25
2022-11-28T06:15:13.780Z,100462.69
2022-11-28T06:18:00.496Z,100470.00
2022-11-28T06:20:47.909Z,100468.28
2022-11-28T06:23:35.337Z,100473.78
2022-11-28T06:26:24.994Z,100460.47
2022-11-28T06:29:11.726Z,100461.53
2022-11-28T06:32:00.404Z,100471.16
2022-11-28T06:34:47.164Z,100465.94
2022-11-28T06:37:34.441Z,100472.22
2022-11-28T06:40:21.204Z,100471.13
2022-11-28T06:43:08.311Z,100464.37
2022-11-28T06:45:55.201Z,100458.16
2022-11-28T06:48:44.076Z,100452.56
2022-11-28T06:51:31.019Z,100444.25
2022-11-28T06:54:17.986Z,100442.88
2022-11-28T06:57:05.067Z,100436.72
2022-11-28T06:59:52.268Z,100432.72
2022-11-28T07:02:39.379Z,100440.31
2022-11-28T07:05:28.652Z,100438.75
2022-11-28T07:08:15.677Z,100439.75
2022-11-28T07:11:09.738Z,100436.72
2022-11-28T07:13:57.708Z,100436.13
2022-11-28T07:16:44.842Z,100443.72
2022-11-28T07:19:31.651Z,100432.53
2022-11-28T07:22:20.230Z,100439.09
2022-11-28T07:25:08.017Z,100440.50
2022-11-28T07:27:55.447Z,100433.13
2022-11-28T07:30:42.404Z,100434.97
2022-11-28T07:33:29.363Z,100427.13
2022-11-28T07:36:17.911Z,100431.50
2022-11-28T07:39:09.419Z,100427.06
2022-11-28T07:41:56.158Z,100426.38
2022-11-28T07:44:43.030Z,100427.75
2022-11-28T07:47:29.926Z,100422.34
2022-11-28T07:50:17.272Z,100419.13
2022-11-28T07:53:07.198Z,100409.44
2022-11-28T07:55:55.525Z,100405.00
2022-11-28T07:58:43.544Z,100401.12
2022-11-28T08:01:33.666Z,100400.41
2022-11-28T08:04:20.953Z,100390.03
2022-11-28T08:07:07.577Z,100395.00
2022-11-28T08:09:54.913Z,100403.59
2022-11-28T08:12:43.070Z,100394.38
2022-11-28T08:15:31.723Z,100400.19
2022-11-28T08:18:18.812Z,100405.22
2022-11-28T08:21:07.900Z,100402.13
2022-11-28T08:23:57.044Z,100391.72
2022-11-28T08:26:44.365Z,100392.66
2022-11-28T08:29:32.729Z,100389.66
2022-11-28T08:32:20.403Z,100397.75
2022-11-28T08:35:08.206Z,100395.88
2022-11-28T08:38:00.371Z,100404.09
2022-11-28T08:40:48.872Z,100409.50
2022-11-28T08:43:36.807Z,100404.28
2022-11-28T08:46:25.246Z,100408.03
2022-11-28T08:49:13.080Z,100404.38
2022-11-28T08:52:00.479Z,100406.75
2022-11-28T08:54:47.742Z,100404.38
2022-11-28T08:57:34.427Z,100410.37
2022-11-28T09:00:22.384Z,100415.31
2022-11-28T09:03:14.406Z,100407.47
2022-11-28T09:06:03.154Z,100408.75
2022-11-28T09:08:50.840Z,100410.78
2022-11-28T09:11:38.688Z,100420.00
2022-11-28T09:14:27.423Z,100410.13
2022-11-28T09:17:15.759Z,100417.22
2022-11-28T09:20:06.034Z,100408.06
2022-11-28T09:22:53.459Z,100404.91
2022-11-28T09:25:41.118Z,100409.59
2022-11-28T09:28:29.246Z,100412.78
2022-11-28T09:31:17.739Z,100425.56
2022-11-28T09:34:05.184Z,100435.97
2022-11-28T09:36:53.735Z,100427.78
2022-11-28T09:39:57.435Z,100428.56
2022-11-28T09:42:48.182Z,100436.06
2022-11-28T09:45:35.183Z,100430.66
2022-11-28T09:48:28.248Z,100431.09
2022-11-28T09:51:26.329Z,100437.56
2022-11-28T09:54:20.654Z,100430.16
2022-11-28T09:57:15.079Z,100432.97
2022-11-28T10:00:03.202Z,100429.00
2022-11-28T10:03:30.481Z,100424.50
2022-11-28T10:06:23.378Z,100412.94
2022-11-28T10:09:23.285Z,100405.22
2022-11-28T10:12:26.787Z,100410.00
2022-11-28T10:15:22.999Z,100405.97
2022-11-28T10:18:19.601Z,100406.87
2022-11-28T10:21:18.424Z,100398.94
2022-11-28T10:24:14.059Z,100406.66
2022-11-28T10:27:06.579Z,100405.56
2022-11-28T10:30:02.222Z,100403.84
2022-11-28T10:32:58.791Z,100405.88
2022-11-28T10:35:49.752Z,100397.06
2022-11-28T10:38:37.580Z,100390.91
2022-11-28T10:41:29.812Z,100382.97
2022-11-28T10:44:25.760Z,100384.69
2022-11-28T10:47:19.489Z,100387.13
2022-11-28T10:50:13.464Z,100378.81
2022-11-28T10:53:07.139Z,100384.31
2022-11-28T10:56:11.704Z,100366.97
2022-11-28T10:59:05.941Z,100372.28
2022-11-28T11:01:54.668Z,100377.62
2022-11-28T11:04:42.822Z,100377.62
2022-11-28T11:07:32.387Z,100375.75
2022-11-28T11:10:22.801Z,100375.16
2022-11-28T11:13:16.874Z,100376.06
2022-11-28T11:16:07.940Z,100367.88
2022-11-28T11:18:56.803Z,100375.19
2022-11-28T11:21:59.839Z,100373.09
2022-11-28T11:25:06.636Z,100375.16
2022-11-28T11:27:57.787Z,100376.59
2022-11-28T11:30:45.962Z,100377.91
2022-11-28T11:33:36.309Z,100376.88
2022-11-28T11:36:29.254Z,100367.13
2022-11-28T11:39:25.561Z,100362.47
2022-11-28T11:42:21.893Z,100356.94
2022-11-28T11:45:30.082Z,100353.28
2022-11-28T11:48:16.885Z,100347.00
2022-11-28T11:51:03.818Z,100350.88
2022-11-28T11:54:02.216Z,100345.16
2022-11-28T11:57:00.608Z,100342.66
2022-11-28T12:00:03.938Z,100344.81
2022-11-28T12:03:01.979Z,100339.66
2022-11-28T12:09:17.405Z,100349.06
2022-11-28T12:12:14.141Z,100338.97
2022-11-28T12:15:01.035Z,100347.44
2022-11-28T12:17:59.980Z,100355.84
2022-11-28T12:21:00.007Z,100353.66
2022-11-28T12:24:10.510Z,100351.94
2022-11-28T12:27:05.604Z,100347.84
2022-11-28T12:30:01.733Z,100352.31
2022-11-28T12:33:01.362Z,100355.25
2022-11-28T12:36:03.247Z,100345.28
2022-11-28T12:39:01.275Z,100348.47
2022-11-28T12:42:12.182Z,100356.81
2022-11-28T12:45:24.569Z,100351.94
2022-11-28T12:48:34.498Z,100360.78
2022-11-28T12:51:32.659Z,100348.03
2022-11-28T12:54:37.079Z,100361.50
2022-11-28T12:57:30.324Z,100359.37
2022-11-28T13:00:21.938Z,100349.19
2022-11-28T13:03:19.986Z,100345.81
2022-11-28T13:06:16.632Z,100338.13
2022-11-28T13:09:19.103Z,100339.03
2022-11-28T13:12:24.439Z,100335.44
2022-11-28T13:15:17.393Z,100332.59
2022-11-28T13:18:15.254Z,100331.63
2022-11-28T13:21:15.507Z,100332.72
2022-11-28T13:24:09.857Z,100332.31
2022-11-28T13:27:04.036Z,100334.72
2022-11-28T13:30:00.899Z,100335.37
2022-11-28T13:32:53.325Z,100337.78
2022-11-28T13:35:45.044Z,100324.78
2022-11-28T13:39:04.836Z,100327.09
2022-11-28T13:42:44.375Z,100338.56
2022-11-28T13:45:26.709Z,100327.09
2022-11-28T13:49:19.738Z,100326.66
2022-11-28T13:52:33.054Z,100328.78
2022-11-28T13:55:39.889Z,100310.41
2022-11-28T13:58:33.755Z,100307.09
2022-11-28T14:01:23.802Z,100309.84
2022-11-28T14:04:13.401Z,100306.44
2022-11-28T14:07:03.516Z,100306.66
2022-11-28T14:10:01.734Z,100300.69
2022-11-28T14:12:59.823Z,100302.06
2022-11-28T14:16:04.860Z,100307.44
2022-11-28T14:19:10.786Z,100307.87
2022-11-28T14:22:13.549Z,100301.25
2022-11-28T14:25:06.034Z,100309.69
2022-11-28T14:27:57.196Z,100312.94
2022-11-28T14:30:46.695Z,100317.50
2022-11-28T14:33:38.559Z,100312.69
2022-11-28T14:36:29.539Z,100318.19
2022-11-28T14:39:34.724Z,100315.34
2022-11-28T14:42:59.437Z,100312.50
2022-11-28T14:45:45.878Z,100322.28
2022-11-28T14:48:33.022Z,100321.50
2022-11-28T14:52:23.169Z,100320.00
2022-11-28T14:55:18.654Z,100321.06
2022-11-28T14:58:06.275Z,100327.00
2022-11-28T15:00:57.951Z,100323.62
2022-11-28T15:03:53.853Z,100328.28
2022-11-28T15:06:42.101Z,100320.38
2022-11-28T15:09:37.284Z,100325.91
2022-11-28T15:12:33.139Z,100332.25
2022-11-28T15:15:20.516Z,100325.41
2022-11-28T15:18:07.570Z,100328.37
2022-11-28T15:21:01.105Z,100335.59
2022-11-28T15:23:49.770Z,100339.19
2022-11-28T15:26:36.961Z,100341.06
2022-11-28T15:29:27.700Z,100338.59
2022-11-28T15:32:16.545Z,100339.56
2022-11-28T15:35:10.953Z,100341.47
2022-11-28T15:38:00.333Z,100342.56
2022-11-28T15:40:51.810Z,100342.97
2022-11-28T15:43:43.114Z,100342.75
2022-11-28T15:46:34.808Z,100341.22
2022-11-28T15:49:29.208Z,100340.75
2022-11-28T15:52:18.402Z,100346.31
2022-11-28T15:55:16.301Z,100339.41
2022-11-28T15:58:23.417Z,100337.53
2022-11-28T16:01:19.481Z,100339.22
2022-11-28T16:04:13.547Z,100343.88
2022-11-28T16:07:02.591Z,100339.31
2022-11-28T16:10:11.798Z,100340.47
2022-11-28T16:13:02.181Z,100341.47
2022-11-28T16:15:50.674Z,100349.72
2022-11-28T16:18:37.726Z,100340.06
2022-11-28T16:21:29.651Z,100339.31
2022-11-28T16:24:18.947Z,100344.63
2022-11-28T16:27:06.485Z,100341.97
2022-11-28T16:29:53.003Z,100342.91
2022-11-28T16:32:41.047Z,100341.13
2022-11-28T16:35:29.898Z,100341.97
2022-11-28T16:38:22.529Z,100350.75
2022-11-28T16:41:16.006Z,100343.66
2022-11-28T16:44:06.069Z,100354.16
2022-11-28T16:46:55.088Z,100347.16
2022-11-28T16:49:44.160Z,100350.75
2022-11-28T16:52:45.483Z,100340.31
2022-11-28T16:55:46.057Z,100348.97
2022-11-28T16:58:33.135Z,100348.03
2022-11-28T17:01:21.561Z,100349.91
2022-11-28T17:04:20.496Z,100350.75
2022-11-28T17:07:10.504Z,100346.41
2022-11-28T17:09:57.245Z,100350.84
2022-11-28T17:12:46.295Z,100345.63
2022-11-28T17:15:33.038Z,100345.06
2022-11-28T17:18:20.227Z,100346.88
2022-11-28T17:21:07.225Z,100345.16
2022-11-28T17:23:54.046Z,100343.47
2022-11-28T17:26:40.857Z,100346.09
2022-11-28T17:29:29.698Z,100340.22
2022-11-28T17:32:16.840Z,100335.47
2022-11-28T17:35:04.052Z,100338.28
2022-11-28T17:37:50.931Z,100338.37
2022-11-28T17:40:42.013Z,100340.62
2022-11-28T17:43:28.829Z,100339.28
2022-11-28T17:46:17.682Z,100349.88
2022-11-28T17:49:04.873Z,100341.16
2022-11-28T17:51:53.424Z,100345.69
2022-11-28T17:54:40.666Z,100341.25
2022-11-28T17:57:27.960Z,100339.38
2022-11-28T18:00:16.828Z,100338.41
2022-11-28T18:03:05.753Z,100342.78
2022-11-28T18:05:52.807Z,100340.12
2022-11-28T18:08:40.317Z,100333.88
2022-11-28T18:11:28.462Z,100344.41
2022-11-28T18:14:19.341Z,100345.25
2022-11-28T18:17:07.139Z,100339.97
2022-11-28T18:19:57.695Z,100342.44
2022-11-28T18:22:44.759Z,100344.31
2022-11-28T18:25:32.478Z,100348.47
2022-11-28T18:28:20.502Z,100347.62
2022-11-28T18:31:12.574Z,100348.47
2022-11-28T18:34:02.562Z,100348.47
2022-11-28T18:37:00.176Z,100354.63
2022-11-28T18:39:49.740Z,100347.62
2022-11-28T18:42:37.287Z,100347.53
2022-11-28T18:45:24.486Z,100352.94
2022-11-28T18:48:11.683Z,100356.53
2022-11-28T18:50:58.570Z,100355.66
2022-11-28T18:53:47.945Z,100354.72
2022-11-28T18:56:35.155Z,100354.81
2022-11-28T18:59:23.298Z,100353.22
2022-11-28T19:02:13.087Z,100355.00
2022-11-28T19:05:01.085Z,100351.50
2022-11-28T19:07:47.829Z,100353.22
2022-11-28T19:10:39.822Z,100348.75
2022-11-28T19:13:26.791Z,100354.91
2022-11-28T19:16:16.390Z,100355.84
2022-11-28T19:19:04.958Z,100353.38
2022-11-28T19:21:53.284Z,100360.56
2022-11-28T19:24:39.990Z,100358.09
2022-11-28T19:27:28.911Z,100352.97
2022-11-28T19:30:16.861Z,100350.41
2022-11-28T19:33:04.614Z,100352.19
2022-11-28T19:35:51.206Z,100356.63
2022-11-28T19:38:39.723Z,100358.34
2022-11-28T19:41:27.959Z,100353.91
2022-11-28T19:44:17.154Z,100356.53
2022-11-28T19:47:06.011Z,100358.44
2022-11-28T19:49:53.390Z,100353.13
2022-11-28T19:52:40.554Z,100355.87
2022-11-28T19:55:28.248Z,100355.22
2022-11-28T19:58:14.999Z,100352.66
2022-11-28T20:01:08.871Z,100360.75
2022-11-28T20:03:55.973Z,100362.37
2022-11-28T20:06:42.977Z,100359.75
2022-11-28T20:09:30.470Z,100367.69
2022-11-28T20:12:18.042Z,100365.03
2022-11-28T20:15:06.284Z,100371.25
2022-11-28T20:17:54.426Z,100374.84
2022-11-28T20:20:42.045Z,100379.19
2022-11-28T20:23:29.063Z,100378.34
2022-11-28T20:26:19.387Z,100375.69
2022-11-28T20:29:08.285Z,100376.72
2022-11-28T20:31:57.197Z,100376.72
2022-11-28T20:34:45.729Z,100372.19
2022-11-28T20:37:34.014Z,100383.56
2022-11-28T20:40:20.974Z,100384.25
2022-11-28T20:43:08.339Z,100381.50
2022-11-28T20:45:55.692Z,100381.31
2022-11-28T20:48:43.288Z,100389.16
2022-11-28T20:51:33.058Z,100383.81
2022-11-28T20:54:20.773Z,100390.72
2022-11-28T20:57:21.293Z,100387.97
2022-11-28T21:00:10.719Z,100381.72
2022-11-28T21:02:57.887Z,100383.81
2022-11-28T21:05:45.151Z,100381.31
2022-11-28T21:08:33.844Z,100377.91
2022-11-28T21:11:55.094Z,100382.44
2022-11-28T21:14:30.344Z,100374.41
2022-11-28T21:17:17.580Z,100373.56
2022-11-28T21:20:04.887Z,100381.59
2022-11-28T21:22:52.224Z,100372.78
2022-11-28T21:25:41.791Z,100369.03
2022-11-28T21:28:29.438Z,100372.53
2022-11-28T21:31:19.120Z,100368.06
2022-11-28T21:34:06.443Z,100366.37
2022-11-28T21:36:54.940Z,100369.03
2022-11-28T21:39:42.223Z,100363.47
2022-11-28T21:42:30.505Z,100368.87
2022-11-28T21:45:17.253Z,100370.56
2022-11-28T21:48:04.270Z,100373.13
2022-11-28T21:50:52.257Z,100371.56
2022-11-28T21:53:38.718Z,100367.97
2022-11-28T21:56:26.436Z,100375.94
2022-11-28T21:59:15.194Z,100373.28
2022-11-28T22:02:05.936Z,100371.66
2022-11-28T22:04:55.688Z,100378.94
2022-11-28T22:07:42.529Z,100370.16
2022-11-28T22:10:29.991Z,100371.09
2022-11-28T22:13:17.627Z,100371.94
2022-11-28T22:16:11.660Z,100366.81
2022-11-28T22:19:01.133Z,100370.25
2022-11-28T22:21:53.405Z,100375.87
2022-11-28T22:24:42.408Z,100374.75
2022-11-28T22:27:32.393Z,100377.47
2022-11-28T22:30:19.412Z,100379.13
2022-11-28T22:33:08.276Z,100384.34
2022-11-28T22:35:55.183Z,100381.78
2022-11-28T22:38:43.843Z,100380.94
2022-11-28T22:41:30.803Z,100377.16
2022-11-28T22:44:18.266Z,100378.94
2022-11-28T22:47:06.501Z,100381.50
2022-11-28T22:49:54.747Z,100381.50
2022-11-28T22:52:41.456Z,100379.59
2022-11-28T22:55:28.561Z,100383.19
2022-11-28T22:58:15.526Z,100385.84
2022-11-28T23:01:05.692Z,100384.91
2022-11-28T23:03:53.276Z,100379.59
2022-11-28T23:06:42.217Z,100379.87
2022-11-28T23:09:29.119Z,100377.91
2022-11-28T23:12:16.297Z,100378.56
2022-11-28T23:15:03.665Z,100381.91
2022-11-28T23:17:51.194Z,100386.47
2022-11-28T23:20:38.183Z,100382.87
2022-11-28T23:23:26.827Z,100383.63
2022-11-28T23:26:15.614Z,100393.28
2022-11-28T23:29:04.562Z,100394.97
2022-11-28T23:31:51.280Z,100398.47
2022-11-28T23:34:38.618Z,100393.28
2022-11-28T23:37:25.466Z,100386.94
2022-11-28T23:40:14.398Z,100386.94
2022-11-28T23:43:01.084Z,100390.34
2022-11-28T23:45:48.211Z,100393.28
2022-11-28T23:48:35.735Z,100396.78
2022-11-28T23:51:25.227Z,100386.94
2022-11-28T23:54:12.916Z,100388.72
2022-11-28T23:57:01.228Z,100390.63
2022-11-28T23:59:47.962Z,100396.78
